Terminal Aerodrome Forecast
Issued by NWS

Current Version | Previous Version | Text Only | Print | Product List | Glossary On
Versions: 1 2 3 4 5 6 7 8 9 10 11 12 13 14 15 16 17 18 19 20 21 22 23 24 25 26 27 28 29
000
FTUS42 KRAH 152328
TAFINT
TAF
KINT 152328Z 1600/1624 33012G19KT P6SM OVC080
     FM160200 35013KT P6SM SCT030 BKN060
     FM160600 01008KT P6SM SKC
     FM161600 06010G16KT P6SM SKC=

USA.gov is the U.S. government's official web portal to all federal, state and local government web resources and services.